Time;durP1;ratioP1;P1;durP2;ratioP2;P2;SDS_P1;SDS_P2;PMS_P1;PMS_P2;Temp;Humidity;BMP_temperature;BMP_pressure;BME280_temperature;BME280_humidity;BME280_pressure;Samples;Min_cycle;Max_cycle;Signal;HPM_P1;HPM_P2
2021/12/07 00:01:57;;;;;;;7.30;6.53;;;1.50;99.90;;;;;;6173111;23;20399;-86
2021/12/07 00:04:23;;;;;;;7.53;6.37;;;1.50;99.90;;;;;;6174666;23;20402;-86
2021/12/07 00:06:49;;;;;;;6.50;5.90;;;1.50;99.90;;;;;;6183165;23;20445;-86
2021/12/07 00:09:17;;;;;;;7.03;6.33;;;1.50;99.90;;;;;;6177822;23;20438;-86
2021/12/07 00:11:44;;;;;;;6.67;5.50;;;1.60;99.90;;;;;;6172302;23;20416;-85
2021/12/07 00:14:14;;;;;;;7.00;6.00;;;1.70;99.90;;;;;;6171480;23;20423;-86
2021/12/07 00:16:43;;;;;;;6.10;5.40;;;1.80;99.90;;;;;;6201092;23;20383;-86
2021/12/07 00:19:10;;;;;;;5.93;5.33;;;1.80;99.90;;;;;;6175258;23;20392;-86
2021/12/07 00:21:38;;;;;;;6.23;5.03;;;1.80;99.90;;;;;;6199473;23;20412;-86
2021/12/07 00:24:05;;;;;;;7.80;4.27;;;1.90;99.90;;;;;;6173607;23;20404;-86
2021/12/07 00:26:31;;;;;;;5.37;4.37;;;2.00;99.90;;;;;;6173455;23;20400;-86
2021/12/07 00:28:58;;;;;;;3.90;3.43;;;2.10;99.90;;;;;;6179461;23;20439;-86
2021/12/07 00:31:31;;;;;;;5.60;5.10;;;2.10;99.90;;;;;;6181971;23;20175;-86
2021/12/07 00:34:42;;;;;;;5.37;4.40;;;2.10;99.90;;;;;;6202170;23;20396;-86
2021/12/07 00:36:51;;;;;;;6.10;4.60;;;2.10;99.90;;;;;;6197521;23;20394;-86
2021/12/07 00:39:20;;;;;;;6.70;4.53;;;2.10;99.90;;;;;;6175155;23;20405;-86
2021/12/07 00:41:48;;;;;;;5.80;5.20;;;2.00;99.90;;;;;;6170401;23;20771;-85
2021/12/07 00:44:15;;;;;;;6.73;5.10;;;2.10;99.90;;;;;;6170923;23;20827;-86
2021/12/07 00:46:41;;;;;;;5.07;4.57;;;2.00;99.90;;;;;;6171253;23;20451;-86
2021/12/07 00:49:07;;;;;;;5.23;4.10;;;2.10;99.90;;;;;;6163128;23;20523;-85
2021/12/07 00:51:32;;;;;;;4.83;4.00;;;2.10;99.90;;;;;;6172003;23;20388;-85
2021/12/07 00:53:58;;;;;;;3.63;3.23;;;2.20;99.90;;;;;;6169769;23;20278;-85
2021/12/07 00:56:24;;;;;;;4.73;3.80;;;2.30;99.90;;;;;;6172125;23;20166;-85
2021/12/07 00:58:51;;;;;;;4.90;4.40;;;2.40;99.90;;;;;;6169888;23;20395;-86
2021/12/07 01:01:19;;;;;;;6.40;4.37;;;2.50;99.90;;;;;;6171671;23;20173;-85
2021/12/07 01:03:45;;;;;;;4.67;3.80;;;2.40;99.90;;;;;;6171529;23;20511;-86
2021/12/07 01:25:04;;;;;;;4.30;3.60;;;1.90;99.90;;;;;;6198969;23;20934;-86
2021/12/07 01:27:30;;;;;;;5.50;4.30;;;1.90;99.90;;;;;;6171842;23;20389;-86
2021/12/07 01:30:09;;;;;;;5.10;4.10;;;1.80;99.90;;;;;;6181064;23;20841;-85
2021/12/07 01:33:02;;;;;;;4.20;3.77;;;1.80;99.90;;;;;;6173917;23;20725;-86
2021/12/07 01:41:21;;;;;;;5.23;4.00;;;1.80;99.90;;;;;;6157264;23;20695;-85
2021/12/07 01:46:41;;;;;;;2.97;2.70;;;1.90;99.90;;;;;;6198548;23;20392;-86
2021/12/07 01:59:50;;;;;;;4.37;3.97;;;2.00;99.90;;;;;;6198315;23;20947;-86
2021/12/07 02:02:24;;;;;;;3.43;3.00;;;1.90;99.90;;;;;;6170882;23;20426;-86
2021/12/07 02:04:58;;;;;;;3.30;3.00;;;1.90;99.90;;;;;;6198146;23;20456;-85
2021/12/07 02:07:24;;;;;;;2.67;2.40;;;2.10;99.90;;;;;;6170331;23;20901;-85
2021/12/07 02:09:58;;;;;;;3.00;2.60;;;2.10;99.90;;;;;;6168859;23;20326;-85
2021/12/07 02:12:25;;;;;;;2.23;2.03;;;2.20;99.90;;;;;;6172599;23;20408;-85
2021/12/07 02:14:51;;;;;;;3.50;2.73;;;2.20;99.90;;;;;;6170805;23;20416;-85
2021/12/07 02:17:23;;;;;;;3.23;2.43;;;2.20;99.90;;;;;;6170824;23;20397;-86
2021/12/07 02:19:49;;;;;;;4.40;3.50;;;2.30;99.90;;;;;;6170235;23;20408;-86
2021/12/07 02:22:18;;;;;;;3.10;2.80;;;2.30;99.90;;;;;;6170884;23;20396;-85
2021/12/07 02:24:45;;;;;;;3.80;3.20;;;2.20;99.90;;;;;;6174034;23;20411;-86
2021/12/07 02:27:11;;;;;;;5.00;3.37;;;2.30;99.90;;;;;;6170834;23;20401;-86
2021/12/07 02:29:36;;;;;;;3.03;2.70;;;2.20;99.90;;;;;;6174686;23;20775;-85
2021/12/07 02:32:04;;;;;;;3.50;3.20;;;2.20;99.90;;;;;;6175614;23;20597;-86
2021/12/07 02:34:42;;;;;;;4.00;3.33;;;2.20;99.90;;;;;;6173846;23;20170;-86
2021/12/07 02:37:09;;;;;;;3.90;3.50;;;2.10;99.90;;;;;;6150121;23;20435;-85
2021/12/07 02:39:37;;;;;;;3.30;3.00;;;2.10;99.90;;;;;;6170761;23;20484;-85
2021/12/07 02:42:05;;;;;;;3.60;3.30;;;2.10;99.90;;;;;;6197078;23;20435;-86
2021/12/07 02:44:32;;;;;;;5.17;3.33;;;2.10;99.90;;;;;;6148078;23;20442;-86
2021/12/07 02:46:58;;;;;;;4.50;3.57;;;2.10;99.90;;;;;;6170890;23;20398;-86
2021/12/07 02:49:23;;;;;;;4.33;3.60;;;2.10;99.90;;;;;;6172383;23;20467;-86
2021/12/07 02:51:50;;;;;;;4.63;3.70;;;2.10;99.90;;;;;;6172549;23;20597;-86
2021/12/07 02:54:17;;;;;;;4.67;3.23;;;2.20;99.90;;;;;;6170861;23;20165;-86
2021/12/07 02:56:51;;;;;;;4.40;4.00;;;2.20;99.90;;;;;;6197551;23;20385;-86
2021/12/07 02:59:19;;;;;;;4.37;3.70;;;2.20;99.90;;;;;;6146624;23;21028;-86
2021/12/07 03:01:52;;;;;;;4.90;3.77;;;2.20;99.90;;;;;;6175321;23;20397;-86
2021/12/07 03:04:24;;;;;;;4.33;3.20;;;2.30;99.90;;;;;;6171443;23;20483;-86
2021/12/07 03:26:09;;;;;;;3.50;3.20;;;2.40;99.90;;;;;;6197445;23;20417;-85
2021/12/07 03:28:38;;;;;;;5.07;3.40;;;2.40;99.90;;;;;;6171253;23;20457;-85
2021/12/07 03:31:05;;;;;;;4.43;3.40;;;2.40;99.90;;;;;;6171939;23;20401;-85
2021/12/07 03:33:31;;;;;;;3.93;3.47;;;2.40;99.90;;;;;;6171045;23;20406;-85
2021/12/07 03:35:57;;;;;;;4.70;3.73;;;2.30;99.90;;;;;;6197141;23;20379;-85
2021/12/07 03:38:23;;;;;;;3.77;3.47;;;2.20;99.90;;;;;;6171332;23;20405;-85
2021/12/07 03:40:49;;;;;;;4.03;3.30;;;2.20;99.90;;;;;;6198375;23;20157;-84
2021/12/07 03:43:15;;;;;;;3.27;2.97;;;2.20;99.90;;;;;;6170947;23;20403;-85
2021/12/07 03:45:41;;;;;;;4.23;2.63;;;2.10;99.90;;;;;;6198304;23;20165;-85
2021/12/07 03:48:08;;;;;;;3.30;2.83;;;2.20;99.90;;;;;;6171049;23;20956;-86
2021/12/07 03:50:35;;;;;;;3.33;2.83;;;2.20;99.90;;;;;;6147477;23;20407;-86
2021/12/07 03:53:01;;;;;;;2.90;2.60;;;2.20;99.90;;;;;;6170572;23;20445;-86
2021/12/07 03:55:27;;;;;;;3.00;2.50;;;2.30;99.90;;;;;;6172381;23;20410;-85
2021/12/07 03:57:53;;;;;;;3.27;2.47;;;2.30;99.90;;;;;;6171606;23;20525;-86
2021/12/07 04:00:21;;;;;;;3.20;2.90;;;2.30;99.90;;;;;;6171794;23;20174;-85
2021/12/07 04:02:49;;;;;;;3.00;2.70;;;2.30;99.90;;;;;;6175408;23;20389;-86
2021/12/07 04:05:18;;;;;;;2.67;2.40;;;2.40;99.90;;;;;;6173217;23;20764;-86
2021/12/07 04:07:44;;;;;;;2.03;1.77;;;2.40;99.90;;;;;;6171101;23;20409;-85
2021/12/07 04:10:13;;;;;;;1.87;1.77;;;2.40;99.90;;;;;;6171708;23;20450;-86
2021/12/07 04:12:39;;;;;;;3.13;2.03;;;2.50;99.90;;;;;;6171160;23;20882;-86
2021/12/07 04:15:07;;;;;;;2.63;2.43;;;2.50;99.90;;;;;;6178272;23;20411;-86
2021/12/07 04:17:33;;;;;;;2.20;2.00;;;2.50;99.90;;;;;;6172805;23;20400;-86
2021/12/07 04:19:59;;;;;;;2.70;2.10;;;2.50;99.90;;;;;;6175875;23;20714;-86
2021/12/07 04:22:25;;;;;;;5.07;2.87;;;2.50;99.90;;;;;;6180155;23;20460;-86
2021/12/07 04:24:50;;;;;;;3.00;2.20;;;2.50;99.90;;;;;;6173834;23;20160;-86
2021/12/07 04:27:16;;;;;;;2.27;1.60;;;2.60;99.90;;;;;;6172933;23;20408;-86
2021/12/07 04:29:42;;;;;;;1.60;1.50;;;2.50;99.90;;;;;;6174014;23;20191;-85
2021/12/07 04:32:08;;;;;;;1.70;1.60;;;2.50;99.90;;;;;;6181772;23;20497;-86
2021/12/07 04:34:33;;;;;;;1.50;1.40;;;2.50;99.90;;;;;;6176224;23;20187;-86
2021/12/07 04:36:59;;;;;;;1.50;1.40;;;2.60;99.90;;;;;;6173756;23;20163;-85
2021/12/07 04:39:25;;;;;;;1.73;1.10;;;2.60;99.90;;;;;;6171620;23;21095;-85
2021/12/07 04:41:52;;;;;;;1.50;1.40;;;2.60;99.90;;;;;;6174126;23;20202;-86
2021/12/07 04:44:18;;;;;;;2.57;1.40;;;2.60;99.90;;;;;;6173755;23;20201;-86
2021/12/07 04:47:00;;;;;;;1.47;1.23;;;2.60;99.90;;;;;;6173459;23;20438;-86
2021/12/07 04:49:52;;;;;;;2.20;1.20;;;2.60;99.90;;;;;;6173730;23;20821;-85
2021/12/07 04:57:48;;;;;;;1.47;1.37;;;2.70;99.90;;;;;;6199189;23;20494;-85
2021/12/07 05:00:21;;;;;;;2.33;1.60;;;2.60;99.90;;;;;;6173438;23;20761;-85
2021/12/07 05:02:54;;;;;;;2.23;1.53;;;2.70;99.90;;;;;;6174037;23;20902;-86
2021/12/07 05:05:21;;;;;;;1.27;1.20;;;2.70;99.90;;;;;;6177192;23;20532;-85
2021/12/07 05:07:53;;;;;;;1.20;1.20;;;2.70;99.90;;;;;;6178777;23;20760;-85
2021/12/07 05:11:01;;;;;;;1.23;1.13;;;2.70;99.90;;;;;;6177167;23;20452;-85
2021/12/07 05:16:05;;;;;;;1.10;1.00;;;2.70;99.90;;;;;;6203488;23;20409;-86
2021/12/07 05:24:05;;;;;;;2.10;1.00;;;2.80;99.90;;;;;;6197741;23;20413;-86
2021/12/07 05:37:47;;;;;;;1.43;1.13;;;2.80;99.90;;;;;;6199882;23;20385;-85
2021/12/07 05:40:19;;;;;;;1.20;1.10;;;2.80;99.90;;;;;;6173800;23;20478;-85
2021/12/07 05:42:46;;;;;;;1.53;1.23;;;2.80;99.90;;;;;;6171174;23;20394;-85
2021/12/07 05:45:16;;;;;;;3.27;1.60;;;2.90;99.90;;;;;;6173333;23;20742;-85
2021/12/07 05:47:43;;;;;;;2.07;1.60;;;2.80;99.90;;;;;;6169866;23;20457;-86
2021/12/07 05:50:11;;;;;;;5.13;2.00;;;2.90;99.90;;;;;;6175294;23;20450;-86
2021/12/07 05:52:55;;;;;;;1.87;1.30;;;2.90;99.90;;;;;;6175949;23;20448;-86
2021/12/07 05:55:23;;;;;;;1.30;1.20;;;2.80;99.90;;;;;;6176524;23;20386;-86
2021/12/07 05:57:49;;;;;;;2.63;1.27;;;2.70;99.90;;;;;;6172404;23;20410;-86
2021/12/07 06:00:25;;;;;;;1.40;1.40;;;2.60;99.90;;;;;;6172202;23;20399;-85
2021/12/07 06:03:03;;;;;;;1.93;1.30;;;2.60;99.90;;;;;;6173518;23;20170;-86
2021/12/07 06:05:29;;;;;;;1.20;1.10;;;2.60;99.90;;;;;;6170750;23;20488;-86
2021/12/07 06:07:55;;;;;;;1.37;1.27;;;2.50;99.90;;;;;;6172580;23;20501;-85
2021/12/07 06:10:22;;;;;;;1.80;1.53;;;2.50;99.90;;;;;;6176982;23;20548;-86
2021/12/07 06:12:48;;;;;;;1.63;1.20;;;2.40;99.90;;;;;;6156083;23;20405;-87
2021/12/07 06:15:17;;;;;;;1.53;1.43;;;2.40;99.90;;;;;;6179525;23;20415;-85
2021/12/07 06:17:44;;;;;;;4.17;1.40;;;2.40;99.90;;;;;;6171142;23;20887;-86
2021/12/07 06:20:11;;;;;;;1.40;1.30;;;2.40;99.90;;;;;;6172692;23;20413;-86
2021/12/07 06:22:36;;;;;;;2.17;0.90;;;2.30;99.90;;;;;;6172078;23;20432;-87
2021/12/07 06:25:03;;;;;;;1.90;1.20;;;2.20;99.90;;;;;;6171386;23;20901;-85
2021/12/07 06:27:32;;;;;;;3.83;1.40;;;2.20;99.90;;;;;;6172197;23;20171;-85
2021/12/07 06:29:57;;;;;;;1.10;1.00;;;2.20;99.90;;;;;;6172174;23;20511;-85
2021/12/07 06:32:24;;;;;;;4.03;2.17;;;2.20;99.90;;;;;;6173291;23;21885;-85
2021/12/07 06:34:50;;;;;;;2.80;1.57;;;2.20;99.90;;;;;;6172005;23;20397;-86
2021/12/07 06:37:18;;;;;;;2.63;1.77;;;2.20;99.90;;;;;;6172316;23;20701;-86
2021/12/07 06:39:44;;;;;;;2.07;1.87;;;2.20;99.90;;;;;;6170870;23;20485;-86
2021/12/07 06:42:11;;;;;;;1.50;1.40;;;2.30;99.90;;;;;;6171513;23;20398;-85
2021/12/07 06:44:38;;;;;;;1.83;1.60;;;2.30;99.90;;;;;;6166673;23;20501;-86
2021/12/07 06:47:05;;;;;;;1.80;1.70;;;2.30;99.90;;;;;;6188141;23;20708;-87
2021/12/07 06:49:32;;;;;;;2.27;2.13;;;2.20;99.90;;;;;;6191203;23;20476;-86
2021/12/07 06:52:02;;;;;;;3.60;2.47;;;2.20;99.90;;;;;;6164669;23;20889;-87
2021/12/07 06:54:35;;;;;;;4.07;1.90;;;2.20;99.90;;;;;;6191500;23;20382;-88
2021/12/07 06:57:07;;;;;;;2.03;1.83;;;2.10;99.90;;;;;;6162555;23;20881;-87
2021/12/07 06:59:34;;;;;;;2.00;1.77;;;2.20;99.90;;;;;;6169133;23;20446;-87
2021/12/07 07:02:00;;;;;;;3.23;2.60;;;2.20;99.90;;;;;;6162556;23;20734;-85
2021/12/07 07:04:27;;;;;;;2.20;1.93;;;2.30;99.90;;;;;;6189661;23;20869;-86
2021/12/07 07:06:53;;;;;;;3.10;2.33;;;2.30;99.90;;;;;;6163177;23;20405;-86
2021/12/07 07:09:18;;;;;;;3.53;1.83;;;2.30;99.90;;;;;;6161702;23;20195;-86
2021/12/07 07:11:44;;;;;;;2.23;2.10;;;2.30;99.90;;;;;;6164215;23;20168;-86
2021/12/07 07:14:10;;;;;;;5.43;2.30;;;2.30;99.90;;;;;;6138636;23;20181;-86
2021/12/07 07:16:36;;;;;;;1.87;1.77;;;2.30;99.90;;;;;;6166346;23;20944;-86
2021/12/07 07:19:02;;;;;;;2.07;1.87;;;2.30;99.90;;;;;;6164793;23;20392;-86
2021/12/07 07:21:28;;;;;;;2.37;2.17;;;2.30;99.90;;;;;;6165561;23;20569;-87
2021/12/07 07:23:57;;;;;;;2.73;2.27;;;2.40;99.90;;;;;;6191222;23;20402;-87
2021/12/07 07:26:23;;;;;;;2.30;2.20;;;2.40;99.90;;;;;;6164045;23;20175;-86
2021/12/07 07:28:49;;;;;;;1.97;1.87;;;2.40;99.90;;;;;;6169991;23;20442;-86
2021/12/07 07:31:18;;;;;;;2.73;2.10;;;2.40;99.90;;;;;;6137633;23;20248;-87
2021/12/07 07:33:47;;;;;;;3.60;2.27;;;2.40;99.90;;;;;;6190982;23;20424;-87
2021/12/07 07:36:34;;;;;;;2.40;2.30;;;2.40;99.90;;;;;;6169134;23;20406;-86
2021/12/07 07:39:13;;;;;;;3.97;2.70;;;2.40;99.90;;;;;;6169975;23;20402;-86
2021/12/07 07:41:40;;;;;;;2.47;2.37;;;2.50;99.90;;;;;;6188405;23;20449;-86
2021/12/07 07:44:07;;;;;;;2.53;2.33;;;2.40;99.90;;;;;;6162510;23;20753;-86
2021/12/07 07:46:33;;;;;;;2.90;2.70;;;2.40;99.90;;;;;;6160807;23;20409;-87
2021/12/07 07:49:00;;;;;;;2.30;2.10;;;2.40;99.90;;;;;;6162868;23;20874;-87
2021/12/07 07:51:26;;;;;;;2.93;2.73;;;2.40;99.90;;;;;;6164555;23;20175;-88
2021/12/07 07:53:54;;;;;;;3.57;2.57;;;2.40;99.90;;;;;;6162799;23;20402;-88
2021/12/07 07:56:20;;;;;;;2.93;2.30;;;2.50;99.90;;;;;;6165466;23;20394;-87
2021/12/07 07:58:46;;;;;;;3.50;2.43;;;2.40;99.90;;;;;;6170283;23;20746;-86
2021/12/07 08:01:12;;;;;;;2.63;2.43;;;2.50;99.90;;;;;;6165802;23;20399;-87
2021/12/07 08:03:38;;;;;;;4.23;2.80;;;2.50;99.90;;;;;;6190890;23;20885;-86
2021/12/07 08:06:03;;;;;;;2.83;2.63;;;2.60;99.90;;;;;;6142718;23;20407;-86
2021/12/07 08:08:29;;;;;;;5.77;2.20;;;2.80;99.90;;;;;;6165732;23;20298;-86
2021/12/07 08:10:57;;;;;;;1.83;1.70;;;2.80;99.90;;;;;;6163077;23;20167;-85
2021/12/07 08:13:23;;;;;;;1.97;1.87;;;2.90;99.90;;;;;;6192353;23;20180;-86
2021/12/07 08:15:49;;;;;;;2.97;1.70;;;2.90;99.90;;;;;;6188672;23;20796;-87
2021/12/07 08:18:15;;;;;;;2.90;2.50;;;2.80;99.90;;;;;;6163894;23;20534;-86
2021/12/07 08:20:42;;;;;;;2.27;1.93;;;2.80;99.90;;;;;;6165514;23;20402;-86
2021/12/07 08:23:08;;;;;;;2.03;1.87;;;2.80;99.90;;;;;;6167513;23;20590;-85
2021/12/07 08:25:39;;;;;;;1.50;1.40;;;2.80;99.90;;;;;;6162714;23;20406;-86
2021/12/07 08:28:07;;;;;;;2.07;1.50;;;2.80;99.90;;;;;;6160419;23;20163;-85
2021/12/07 08:30:34;;;;;;;1.80;1.70;;;2.80;99.90;;;;;;6162069;23;20422;-85
2021/12/07 08:32:59;;;;;;;1.93;1.83;;;2.90;99.90;;;;;;6161097;23;20402;-85
2021/12/07 08:35:25;;;;;;;2.37;1.97;;;2.90;99.90;;;;;;6164097;23;20413;-86
2021/12/07 08:37:51;;;;;;;3.10;2.20;;;2.90;99.90;;;;;;6163494;23;20629;-86
2021/12/07 08:40:21;;;;;;;2.10;1.97;;;2.90;99.90;;;;;;6161010;23;20665;-86
2021/12/07 08:42:49;;;;;;;2.23;1.80;;;2.90;99.90;;;;;;6165178;23;20403;-85
2021/12/07 08:45:15;;;;;;;2.30;1.83;;;2.90;99.90;;;;;;6162366;23;20406;-86
2021/12/07 08:47:44;;;;;;;2.10;2.00;;;3.10;99.90;;;;;;6163782;23;20502;-86
2021/12/07 08:50:18;;;;;;;5.07;1.90;;;3.10;99.90;;;;;;6190914;23;20446;-85
2021/12/07 08:52:46;;;;;;;2.20;1.73;;;3.20;99.90;;;;;;6159224;23;20863;-85
2021/12/07 09:00:42;;;;;;;3.47;1.90;;;3.20;99.90;;;;;;6166659;23;20414;-86
2021/12/07 09:03:08;;;;;;;2.80;2.03;;;3.20;99.90;;;;;;6163278;23;20437;-85
2021/12/07 09:05:35;;;;;;;3.27;1.50;;;3.20;99.90;;;;;;6163367;23;20828;-85
2021/12/07 09:08:01;;;;;;;1.83;1.73;;;3.30;99.90;;;;;;6161790;23;20625;-86
2021/12/07 09:10:27;;;;;;;2.03;1.93;;;3.20;99.90;;;;;;6162042;23;20449;-86
2021/12/07 09:12:53;;;;;;;2.63;1.70;;;3.20;99.90;;;;;;6163112;23;20262;-86
2021/12/07 09:15:19;;;;;;;4.10;2.03;;;3.20;99.90;;;;;;6162995;23;20186;-85
2021/12/07 09:17:45;;;;;;;1.77;1.67;;;3.40;99.90;;;;;;6163426;23;20391;-86
2021/12/07 09:20:15;;;;;;;2.90;2.30;;;3.40;99.90;;;;;;6162394;23;20453;-86
2021/12/07 09:22:45;;;;;;;4.20;2.20;;;3.70;99.90;;;;;;6164190;23;20199;-86
2021/12/07 09:25:11;;;;;;;2.83;2.13;;;3.80;99.90;;;;;;6162247;23;20501;-85
2021/12/07 09:27:37;;;;;;;2.53;1.70;;;3.70;99.90;;;;;;6163322;23;20395;-85
2021/12/07 09:30:09;;;;;;;2.60;1.87;;;3.70;99.90;;;;;;6191807;23;20507;-86
2021/12/07 09:32:34;;;;;;;2.30;1.77;;;3.70;99.90;;;;;;6190260;23;20703;-86
2021/12/07 09:35:02;;;;;;;2.00;1.90;;;3.70;99.90;;;;;;6164640;23;20399;-86
2021/12/07 09:37:28;;;;;;;1.50;1.27;;;4.30;99.90;;;;;;6163740;23;20536;-89
2021/12/07 09:39:54;;;;;;;1.63;1.20;;;4.90;99.90;;;;;;6165612;23;20762;-87
2021/12/07 09:42:19;;;;;;;2.60;1.40;;;5.50;99.90;;;;;;6164593;23;20399;-87
2021/12/07 09:44:45;;;;;;;1.90;1.40;;;5.80;99.90;;;;;;6162632;23;20198;-86
2021/12/07 09:47:12;;;;;;;2.23;1.57;;;6.40;99.90;;;;;;6167530;23;20174;-87
2021/12/07 09:49:42;;;;;;;2.17;1.40;;;6.60;99.90;;;;;;6191804;23;20439;-87
2021/12/07 09:52:15;;;;;;;2.37;1.30;;;6.60;99.90;;;;;;6163396;23;20410;-87
2021/12/07 09:54:40;;;;;;;2.33;1.60;;;6.60;99.90;;;;;;6165280;23;20191;-87
2021/12/07 09:57:06;;;;;;;4.23;1.70;;;6.80;99.90;;;;;;6192279;23;20423;-87
2021/12/07 09:59:32;;;;;;;2.90;1.77;;;7.10;99.90;;;;;;6167133;23;20640;-87
2021/12/07 10:01:58;;;;;;;1.67;1.40;;;7.40;99.90;;;;;;6164914;23;20168;-87
2021/12/07 10:04:27;;;;;;;1.70;1.27;;;7.80;99.90;;;;;;6139997;23;20606;-86
2021/12/07 10:06:54;;;;;;;2.27;1.50;;;7.90;99.90;;;;;;6165325;23;20239;-87
2021/12/07 10:09:21;;;;;;;1.90;1.27;;;7.70;99.90;;;;;;6162778;23;20435;-87
2021/12/07 10:11:52;;;;;;;2.43;1.50;;;8.20;99.90;;;;;;6162635;23;20399;-90
2021/12/07 10:14:19;;;;;;;1.80;1.43;;;8.50;99.90;;;;;;6164167;23;20410;-85
2021/12/07 10:16:48;;;;;;;3.30;1.63;;;8.70;99.90;;;;;;6162430;23;20422;-87
2021/12/07 10:19:29;;;;;;;3.10;1.90;;;9.50;99.90;;;;;;6165970;23;20492;-87
2021/12/07 10:22:09;;;;;;;3.30;1.33;;;10.40;99.00;;;;;;6164212;23;20432;-87
2021/12/07 10:24:42;;;;;;;4.60;1.83;;;9.80;98.30;;;;;;6195545;23;20430;-87
2021/12/07 10:27:09;;;;;;;3.00;1.77;;;8.10;99.90;;;;;;6141317;23;20397;-87
2021/12/07 10:29:35;;;;;;;2.23;1.40;;;7.90;99.90;;;;;;6162757;23;20562;-87
2021/12/07 10:32:05;;;;;;;3.03;1.73;;;7.70;99.90;;;;;;6139470;23;20399;-85
2021/12/07 10:34:37;;;;;;;4.93;1.60;;;8.80;99.90;;;;;;6162768;23;20403;-87
2021/12/07 10:37:07;;;;;;;3.80;1.40;;;10.10;99.10;;;;;;6165655;23;20445;-87
2021/12/07 10:39:49;;;;;;;1.90;1.70;;;11.00;96.80;;;;;;6164587;23;20801;-87
2021/12/07 10:42:27;;;;;;;3.20;1.90;;;11.50;95.60;;;;;;6164068;23;20850;-86
2021/12/07 10:44:54;;;;;;;4.90;2.13;;;11.60;94.20;;;;;;6156482;23;20544;-87
2021/12/07 10:47:21;;;;;;;5.40;1.90;;;10.80;95.30;;;;;;6162308;23;20469;-86
2021/12/07 10:49:55;;;;;;;5.37;1.80;;;10.70;95.80;;;;;;6168129;23;20500;-86
2021/12/07 10:52:38;;;;;;;4.33;1.27;;;10.40;95.60;;;;;;6170024;23;20406;-86
2021/12/07 10:55:07;;;;;;;2.60;1.30;;;10.20;95.00;;;;;;6163155;23;20738;-87
2021/12/07 10:57:47;;;;;;;1.70;1.20;;;10.50;94.80;;;;;;6160153;23;20403;-88
2021/12/07 11:00:16;;;;;;;3.83;1.53;;;12.20;93.80;;;;;;6162422;23;20433;-88
2021/12/07 11:03:20;;;;;;;2.97;1.50;;;12.10;92.00;;;;;;6168291;23;20395;-88
2021/12/07 11:05:54;;;;;;;2.13;1.13;;;11.80;93.00;;;;;;6037874;23;20799;-88
2021/12/07 11:08:22;;;;;;;1.63;1.13;;;12.20;92.40;;;;;;6070177;23;20485;-87
2021/12/07 11:10:50;;;;;;;3.63;1.70;;;12.10;91.00;;;;;;6138533;23;20758;-88
2021/12/07 11:13:23;;;;;;;2.43;1.37;;;12.30;90.40;;;;;;6161236;23;20422;-87
2021/12/07 11:15:55;;;;;;;3.00;1.60;;;12.20;89.90;;;;;;6160626;23;20402;-89
2021/12/07 11:18:22;;;;;;;2.50;1.20;;;11.30;91.00;;;;;;6161067;23;20398;-88
2021/12/07 11:20:48;;;;;;;4.27;2.73;;;11.50;91.50;;;;;;6161372;23;20413;-89
2021/12/07 11:23:21;;;;;;;4.20;2.20;;;10.90;91.20;;;;;;6159975;23;20757;-89
2021/12/07 11:31:57;;;;;;;1.67;1.17;;;9.00;94.80;;;;;;6168029;23;20392;-93
2021/12/07 11:34:39;;;;;;;3.93;1.30;;;10.80;93.10;;;;;;6171208;23;21161;-92
2021/12/07 11:37:09;;;;;;;2.33;1.80;;;11.90;90.40;;;;;;6195485;23;20864;-92
2021/12/07 11:39:52;;;;;;;2.30;1.67;;;11.90;91.50;;;;;;6169522;23;20401;-93
2021/12/07 11:42:29;;;;;;;2.73;1.40;;;11.90;89.50;;;;;;6168013;23;20406;-94
2021/12/07 11:45:02;;;;;;;2.47;1.50;;;12.00;89.10;;;;;;6168046;23;20452;-93
2021/12/07 11:47:33;;;;;;;2.60;1.57;;;13.30;87.80;;;;;;6198533;23;20978;-95
2021/12/07 11:50:16;;;;;;;3.53;1.20;;;13.40;86.80;;;;;;6169294;23;20774;-92
2021/12/07 11:52:46;;;;;;;1.93;1.70;;;13.60;83.50;;;;;;6197525;23;20468;-96
2021/12/07 11:55:27;;;;;;;5.27;2.33;;;12.40;85.30;;;;;;6194702;23;20637;-94
2021/12/07 11:57:53;;;;;;;3.30;1.20;;;13.30;81.90;;;;;;6169328;23;20779;-94
2021/12/07 12:00:34;;;;;;;3.83;1.50;;;13.40;82.10;;;;;;6170805;23;20547;-92
2021/12/07 12:03:04;;;;;;;2.73;1.23;;;13.40;77.80;;;;;;6171972;23;20398;-93
2021/12/07 12:05:30;;;;;;;2.47;1.03;;;11.10;83.30;;;;;;6168412;23;20430;-91
2021/12/07 12:07:56;;;;;;;2.17;1.20;;;9.80;90.10;;;;;;6167592;23;20434;-93
2021/12/07 12:10:23;;;;;;;4.37;1.10;;;8.60;92.20;;;;;;6167779;23;20225;-92
2021/12/07 12:13:14;;;;;;;2.40;1.10;;;8.10;93.40;;;;;;6166426;23;20406;-93
2021/12/07 12:16:24;;;;;;;2.03;0.97;;;7.60;94.20;;;;;;6167801;23;20459;-92
2021/12/07 12:19:21;;;;;;;3.23;1.10;;;9.00;93.40;;;;;;6168677;23;20398;-93
2021/12/07 12:21:54;;;;;;;1.43;1.23;;;11.00;90.50;;;;;;6146452;23;20669;-95
2021/12/07 12:24:52;;;;;;;1.80;1.07;;;12.30;86.90;;;;;;6168730;23;20429;-94
2021/12/07 12:27:35;;;;;;;0.83;0.80;;;12.80;81.90;;;;;;6167520;23;20740;-94
2021/12/07 12:30:17;;;;;;;1.90;0.93;;;12.40;81.60;;;;;;6168556;23;20469;-92
2021/12/07 12:32:46;;;;;;;2.20;1.23;;;12.90;81.10;;;;;;6168958;23;20400;-94
2021/12/07 12:35:13;;;;;;;2.30;0.90;;;13.80;75.90;;;;;;6169283;23;20403;-93
2021/12/07 12:37:49;;;;;;;3.13;1.17;;;14.10;75.20;;;;;;6171602;23;20454;-93
2021/12/07 12:40:27;;;;;;;2.60;0.90;;;12.90;74.90;;;;;;6166384;23;20433;-93
2021/12/07 12:42:57;;;;;;;4.57;1.40;;;10.60;82.20;;;;;;6168458;23;20453;-93
2021/12/07 12:45:46;;;;;;;3.33;1.40;;;11.10;83.20;;;;;;6171318;23;20394;-94
2021/12/07 12:48:19;;;;;;;1.23;1.03;;;12.50;81.10;;;;;;6191348;23;20784;-94
2021/12/07 12:50:49;;;;;;;3.77;1.30;;;14.80;75.10;;;;;;6166741;23;20445;-93
2021/12/07 12:53:22;;;;;;;4.37;2.57;;;14.60;73.20;;;;;;6164229;23;20398;-92
2021/12/07 12:55:56;;;;;;;3.03;1.30;;;14.10;74.30;;;;;;6143695;23;20969;-91
2021/12/07 12:58:28;;;;;;;2.07;1.13;;;13.10;74.60;;;;;;6164668;23;20391;-89
2021/12/07 13:01:25;;;;;;;3.13;1.53;;;13.10;76.50;;;;;;6190078;23;20835;-88
2021/12/07 13:04:14;;;;;;;1.07;0.90;;;13.00;75.00;;;;;;6197386;23;20422;-88
2021/12/07 13:09:44;;;;;;;2.07;1.53;;;13.40;71.70;;;;;;6158066;23;20450;-88
2021/12/07 13:12:31;;;;;;;3.00;1.63;;;13.70;72.30;;;;;;6165236;23;20403;-88
2021/12/07 13:15:08;;;;;;;1.93;1.40;;;12.90;74.30;;;;;;6169531;23;20411;-88
2021/12/07 13:17:43;;;;;;;2.77;1.10;;;12.00;74.40;;;;;;6161262;23;20403;-90
2021/12/07 13:20:14;;;;;;;5.07;1.23;;;10.50;78.40;;;;;;6164569;23;20529;-90
2021/12/07 13:23:04;;;;;;;1.97;1.13;;;9.00;85.20;;;;;;6173937;23;20399;-91
2021/12/07 13:26:05;;;;;;;1.37;1.27;;;7.70;89.90;;;;;;6177377;23;20865;-93
2021/12/07 13:28:33;;;;;;;1.20;1.07;;;7.10;92.10;;;;;;6172300;23;20398;-91
2021/12/07 13:31:01;;;;;;;3.30;1.50;;;6.70;93.10;;;;;;6169945;23;20468;-91
2021/12/07 13:33:34;;;;;;;2.97;1.20;;;6.60;94.00;;;;;;6162643;23;20890;-89
2021/12/07 13:36:20;;;;;;;2.03;1.23;;;6.60;94.20;;;;;;6193014;23;20403;-91
2021/12/07 13:38:46;;;;;;;4.57;1.20;;;6.50;94.70;;;;;;6169742;23;20754;-91
2021/12/07 13:41:18;;;;;;;4.30;1.37;;;6.40;95.30;;;;;;6166328;23;20482;-90
2021/12/07 13:43:56;;;;;;;2.20;1.30;;;6.40;95.60;;;;;;6165937;23;20392;-92
2021/12/07 13:46:24;;;;;;;4.70;1.40;;;6.50;95.80;;;;;;6169739;23;20512;-94
2021/12/07 13:48:53;;;;;;;1.70;1.40;;;6.40;96.00;;;;;;6171259;23;20504;-95
2021/12/07 13:51:21;;;;;;;1.63;1.53;;;6.40;96.30;;;;;;6170401;23;20403;-92
2021/12/07 13:53:49;;;;;;;3.90;1.23;;;6.70;96.20;;;;;;6164684;23;20448;-92
2021/12/07 13:56:22;;;;;;;1.83;1.10;;;6.90;95.50;;;;;;6142431;23;20399;-93
2021/12/07 13:59:08;;;;;;;5.20;1.37;;;7.80;94.70;;;;;;6144546;23;20638;-93
2021/12/07 14:01:36;;;;;;;1.60;1.10;;;8.10;92.90;;;;;;6169386;23;20392;-94
2021/12/07 14:04:04;;;;;;;5.83;1.30;;;7.60;93.00;;;;;;6168642;23;20647;-93
2021/12/07 14:06:35;;;;;;;2.40;1.40;;;7.30;93.10;;;;;;6177887;23;20391;-93
2021/12/07 14:09:18;;;;;;;3.73;1.00;;;6.90;93.60;;;;;;6171173;23;20442;-94
2021/12/07 14:12:15;;;;;;;3.10;1.47;;;6.70;93.70;;;;;;6192527;23;20414;-93
2021/12/07 14:18:49;;;;;;;;;;;;;;;;;;;;;
2021/12/07 14:21:18;;;;;;;2.40;0.93;;;6.20;94.10;;;;;;6202802;23;20401;-96
2021/12/07 14:36:57;;;;;;;2.57;1.00;;;5.90;95.40;;;;;;6223809;23;20961;-94
2021/12/07 14:39:27;;;;;;;4.60;1.00;;;5.90;95.90;;;;;;6188398;23;20409;-91
2021/12/07 14:41:58;;;;;;;4.47;1.47;;;5.80;95.90;;;;;;6164687;23;20402;-94
2021/12/07 14:44:27;;;;;;;2.50;0.97;;;5.80;96.30;;;;;;6161893;23;20486;-94
2021/12/07 14:47:04;;;;;;;1.13;0.70;;;5.70;96.40;;;;;;6191157;23;20453;-92
2021/12/07 14:49:34;;;;;;;3.30;0.90;;;5.70;96.00;;;;;;6167953;23;20756;-90
2021/12/07 14:52:00;;;;;;;2.77;1.60;;;5.70;95.90;;;;;;6165697;23;20413;-90
2021/12/07 14:54:26;;;;;;;3.03;1.40;;;5.70;96.00;;;;;;6163586;23;20514;-89
2021/12/07 14:56:55;;;;;;;5.50;2.20;;;5.70;96.10;;;;;;6168617;23;20591;-92
2021/12/07 14:59:28;;;;;;;5.53;3.70;;;5.50;96.70;;;;;;6164729;23;20234;-91
2021/12/07 15:01:57;;;;;;;10.87;4.27;;;5.40;96.40;;;;;;6166803;23;20399;-90
2021/12/07 15:04:24;;;;;;;1.93;1.70;;;5.10;97.70;;;;;;6162483;23;20396;-92
2021/12/07 15:07:18;;;;;;;1.57;1.00;;;4.90;98.50;;;;;;6166301;23;20417;-92